createdAt,value
2022-10-04T00:02:16.302Z,7.77
2022-10-04T00:04:33.626Z,7.66
2022-10-04T00:06:51.613Z,7.62
2022-10-04T00:09:08.614Z,7.55
2022-10-04T00:11:25.834Z,7.61
2022-10-04T00:13:42.869Z,7.63
2022-10-04T00:16:01.295Z,7.57
2022-10-04T00:18:18.261Z,7.51
2022-10-04T00:20:35.279Z,7.52
2022-10-04T00:22:52.317Z,7.50
2022-10-04T00:25:16.880Z,7.55
2022-10-04T00:27:34.218Z,7.59
2022-10-04T00:29:55.500Z,7.56
2022-10-04T00:32:12.434Z,7.49
2022-10-04T00:34:30.286Z,7.41
2022-10-04T00:36:48.657Z,7.39
2022-10-04T00:39:05.646Z,7.49
2022-10-04T00:41:22.626Z,7.51
2022-10-04T00:43:39.695Z,7.45
2022-10-04T00:45:56.809Z,7.38
2022-10-04T00:48:14.858Z,7.30
2022-10-04T00:50:33.274Z,7.28
2022-10-04T00:52:50.469Z,7.25
2022-10-04T00:55:07.404Z,7.25
2022-10-04T00:57:24.700Z,7.28
2022-10-04T00:59:41.718Z,7.23
2022-10-04T01:01:59.910Z,7.19
2022-10-04T01:04:17.191Z,7.18
2022-10-04T01:06:34.423Z,7.19
2022-10-04T01:08:51.403Z,7.17
2022-10-04T01:11:08.413Z,7.12
2022-10-04T01:13:25.309Z,7.06
2022-10-04T01:15:42.628Z,7.09
2022-10-04T01:18:01.994Z,7.05
2022-10-04T01:20:19.491Z,7.07
2022-10-04T01:22:36.779Z,7.05
2022-10-04T01:24:54.006Z,7.08
2022-10-04T01:27:12.244Z,7.10
2022-10-04T01:29:29.207Z,7.00
2022-10-04T01:31:46.562Z,6.89
2022-10-04T01:34:04.647Z,6.87
2022-10-04T01:36:25.605Z,6.88
2022-10-04T01:38:42.579Z,6.83
2022-10-04T01:40:59.866Z,6.83
2022-10-04T01:43:17.101Z,6.82
2022-10-04T01:45:36.178Z,6.80
2022-10-04T01:47:53.183Z,6.82
2022-10-04T01:50:15.569Z,6.79
2022-10-04T01:52:33.172Z,6.86
2022-10-04T01:54:50.123Z,6.82
2022-10-04T01:57:07.632Z,6.75
2022-10-04T01:59:24.805Z,6.74
2022-10-04T02:01:42.191Z,6.79
2022-10-04T02:03:59.623Z,6.87
2022-10-04T02:06:16.652Z,6.78
2022-10-04T02:08:33.712Z,6.72
2022-10-04T02:10:50.912Z,6.70
2022-10-04T02:13:08.183Z,6.72
2022-10-04T02:15:26.140Z,6.66
2022-10-04T02:17:43.439Z,6.66
2022-10-04T02:20:02.813Z,6.61
2022-10-04T02:22:19.804Z,6.62
2022-10-04T02:24:37.095Z,6.64
2022-10-04T02:26:54.286Z,6.61
2022-10-04T02:29:11.234Z,6.53
2022-10-04T02:31:28.294Z,6.49
2022-10-04T02:33:45.640Z,6.51
2022-10-04T02:36:02.610Z,6.41
2022-10-04T02:38:20.835Z,6.42
2022-10-04T02:40:38.531Z,6.40
2022-10-04T02:42:55.460Z,6.42
2022-10-04T02:45:12.757Z,6.40
2022-10-04T02:47:29.804Z,6.41
2022-10-04T02:49:46.967Z,6.44
2022-10-04T02:52:03.922Z,6.47
2022-10-04T02:54:20.943Z,6.38
2022-10-04T02:56:38.136Z,6.35
2022-10-04T02:58:55.165Z,6.42
2022-10-04T03:01:12.147Z,6.39
2022-10-04T03:03:29.491Z,6.42
2022-10-04T03:05:48.195Z,6.46
2022-10-04T03:08:05.165Z,6.48
2022-10-04T03:10:22.523Z,6.51
2022-10-04T03:12:39.752Z,6.44
2022-10-04T03:14:56.987Z,6.46
2022-10-04T03:17:13.909Z,6.43
2022-10-04T03:19:30.985Z,6.34
2022-10-04T03:21:48.916Z,6.34
2022-10-04T03:24:05.822Z,6.32
2022-10-04T03:26:23.025Z,6.30
2022-10-04T03:28:40.343Z,6.24
2022-10-04T03:30:57.547Z,6.22
2022-10-04T03:33:14.492Z,6.08
2022-10-04T03:35:31.583Z,6.05
2022-10-04T03:37:48.849Z,6.12
2022-10-04T03:40:08.212Z,6.12
2022-10-04T03:42:25.234Z,6.08
2022-10-04T03:44:44.924Z,6.12
2022-10-04T03:47:01.912Z,6.10
2022-10-04T03:49:19.094Z,6.10
2022-10-04T03:51:39.301Z,6.08
2022-10-04T03:53:56.687Z,6.09
2022-10-04T03:56:13.656Z,6.15
2022-10-04T03:58:30.710Z,6.13
2022-10-04T04:00:47.724Z,6.12
2022-10-04T04:03:05.044Z,6.08
2022-10-04T04:05:23.296Z,6.03
2022-10-04T04:07:40.478Z,6.02
2022-10-04T04:09:57.991Z,6.08
2022-10-04T04:12:15.199Z,6.06
2022-10-04T04:14:32.043Z,6.10
2022-10-04T04:16:48.970Z,6.09
2022-10-04T04:19:06.008Z,6.08
2022-10-04T04:21:23.265Z,6.08
2022-10-04T04:23:40.278Z,6.08
2022-10-04T04:25:57.239Z,6.06
2022-10-04T04:28:14.339Z,6.06
2022-10-04T04:30:31.542Z,5.95
2022-10-04T04:32:48.636Z,5.92
2022-10-04T04:35:05.822Z,5.97
2022-10-04T04:37:23.088Z,5.99
2022-10-04T04:39:41.279Z,5.97
2022-10-04T04:42:00.029Z,5.96
2022-10-04T04:44:17.295Z,5.93
2022-10-04T04:46:34.500Z,5.99
2022-10-04T04:48:52.170Z,6.00
2022-10-04T04:51:12.626Z,5.93
2022-10-04T04:53:29.610Z,5.95
2022-10-04T04:56:04.284Z,5.95
2022-10-04T04:58:21.992Z,5.98
2022-10-04T05:00:38.998Z,5.98
2022-10-04T05:02:58.625Z,5.97
2022-10-04T05:05:15.864Z,5.95
2022-10-04T05:07:35.318Z,5.93
2022-10-04T05:09:52.518Z,5.92
2022-10-04T05:12:11.749Z,5.92
2022-10-04T05:14:28.679Z,5.96
2022-10-04T05:16:45.901Z,5.99
2022-10-04T05:19:03.034Z,5.99
2022-10-04T05:21:20.010Z,5.99
2022-10-04T05:23:37.422Z,5.96
2022-10-04T05:25:55.613Z,5.92
2022-10-04T05:28:12.930Z,6.01
2022-10-04T05:30:30.231Z,6.00
2022-10-04T05:32:47.431Z,5.97
2022-10-04T05:35:09.100Z,5.90
2022-10-04T05:37:26.299Z,5.93
2022-10-04T05:39:43.600Z,5.99
2022-10-04T05:42:00.652Z,5.94
2022-10-04T05:44:17.961Z,5.86
2022-10-04T05:46:35.232Z,5.85
2022-10-04T05:48:52.163Z,5.87
2022-10-04T05:51:10.541Z,5.81
2022-10-04T05:53:27.622Z,5.87
2022-10-04T05:55:45.040Z,5.86
2022-10-04T05:58:02.295Z,5.82
2022-10-04T06:00:20.270Z,5.79
2022-10-04T06:02:37.295Z,5.77
2022-10-04T06:04:54.291Z,5.77
2022-10-04T06:07:11.509Z,5.79
2022-10-04T06:09:28.783Z,5.84
2022-10-04T06:11:46.000Z,5.87
2022-10-04T06:14:03.112Z,5.81
2022-10-04T06:16:21.142Z,5.84
2022-10-04T06:18:38.136Z,5.89
2022-10-04T06:20:55.176Z,5.93
2022-10-04T06:23:12.259Z,5.94
2022-10-04T06:25:29.495Z,5.92
2022-10-04T06:27:46.749Z,5.95
2022-10-04T06:30:03.977Z,5.91
2022-10-04T06:32:21.995Z,5.86
2022-10-04T06:34:39.187Z,5.87
2022-10-04T06:36:56.179Z,5.88
2022-10-04T06:39:13.365Z,5.89
2022-10-04T06:41:30.579Z,5.93
2022-10-04T06:43:49.888Z,6.00
2022-10-04T06:46:07.244Z,6.06
2022-10-04T06:48:25.170Z,6.00
2022-10-04T06:50:42.117Z,6.01
2022-10-04T06:52:59.286Z,6.08
2022-10-04T06:55:16.260Z,6.03
2022-10-04T06:57:33.226Z,6.05
2022-10-04T06:59:50.260Z,6.04
2022-10-04T07:02:07.306Z,6.06
2022-10-04T07:04:24.335Z,6.06
2022-10-04T07:06:41.527Z,6.04
2022-10-04T07:08:58.955Z,6.06
2022-10-04T07:11:17.750Z,6.14
2022-10-04T07:13:35.813Z,6.15
2022-10-04T07:15:53.154Z,6.18
2022-10-04T07:18:10.465Z,6.26
2022-10-04T07:20:27.775Z,6.35
2022-10-04T07:22:45.023Z,6.29
2022-10-04T07:25:01.922Z,6.34
2022-10-04T07:27:18.940Z,6.32
2022-10-04T07:29:40.003Z,6.36
2022-10-04T07:31:59.074Z,6.48
2022-10-04T07:34:17.075Z,6.58
2022-10-04T07:36:37.753Z,6.52
2022-10-04T07:38:54.996Z,6.60
2022-10-04T07:41:12.035Z,6.59
2022-10-04T07:43:29.256Z,6.61
2022-10-04T07:45:46.365Z,6.72
2022-10-04T07:48:03.417Z,6.74
2022-10-04T07:50:20.327Z,6.77
2022-10-04T07:52:37.256Z,6.86
2022-10-04T07:54:55.522Z,6.99
2022-10-04T07:57:12.423Z,7.07
2022-10-04T07:59:29.498Z,7.00
2022-10-04T08:01:48.057Z,7.03
2022-10-04T08:04:05.648Z,7.07
2022-10-04T08:06:22.665Z,7.12
2022-10-04T08:08:40.830Z,7.17
2022-10-04T08:10:57.817Z,7.21
2022-10-04T08:13:14.709Z,7.32
2022-10-04T08:15:32.834Z,7.44
2022-10-04T08:17:49.996Z,7.58
2022-10-04T08:20:07.314Z,7.75
2022-10-04T08:22:24.480Z,7.92
2022-10-04T08:24:41.534Z,8.10
2022-10-04T08:26:58.729Z,8.30
2022-10-04T08:29:15.991Z,8.52
2022-10-04T08:31:33.411Z,8.73
2022-10-04T08:33:50.478Z,8.88
2022-10-04T08:36:08.519Z,8.99
2022-10-04T08:38:25.660Z,8.98
2022-10-04T08:40:43.059Z,9.02
2022-10-04T08:43:00.162Z,9.01
2022-10-04T08:45:17.166Z,9.04
2022-10-04T08:47:34.496Z,9.09
2022-10-04T08:49:51.400Z,9.27
2022-10-04T08:52:09.912Z,9.50
2022-10-04T08:54:26.887Z,9.76
2022-10-04T08:56:44.892Z,10.05
2022-10-04T08:59:02.456Z,10.21
2022-10-04T09:01:20.638Z,10.28
2022-10-04T09:03:38.589Z,10.38
2022-10-04T09:05:57.726Z,10.47
2022-10-04T09:08:14.978Z,10.58
2022-10-04T09:10:32.004Z,10.69
2022-10-04T09:12:49.200Z,10.80
2022-10-04T09:15:09.641Z,11.00
2022-10-04T09:17:28.005Z,11.24
2022-10-04T09:19:47.361Z,11.58
2022-10-04T09:22:05.344Z,11.87
2022-10-04T09:24:23.348Z,12.06
2022-10-04T09:26:40.687Z,12.25
2022-10-04T09:29:02.442Z,12.32
2022-10-04T09:31:21.983Z,12.40
2022-10-04T09:33:40.335Z,12.43
2022-10-04T09:35:59.656Z,12.48
2022-10-04T09:38:16.869Z,12.55
2022-10-04T09:40:35.114Z,12.64
2022-10-04T09:42:52.148Z,12.68
2022-10-04T09:45:11.074Z,12.81
2022-10-04T09:47:29.289Z,13.00
2022-10-04T09:49:46.214Z,13.28
2022-10-04T09:52:03.770Z,13.48
2022-10-04T09:54:20.831Z,13.65
2022-10-04T09:56:38.156Z,13.69
2022-10-04T09:58:55.182Z,13.76
2022-10-04T10:01:12.373Z,13.85
2022-10-04T10:03:29.389Z,14.03
2022-10-04T10:05:46.461Z,14.20
2022-10-04T10:08:03.512Z,14.32
2022-10-04T10:10:20.516Z,14.58
2022-10-04T10:12:37.757Z,14.67
2022-10-04T10:14:54.782Z,14.92
2022-10-04T10:17:11.681Z,15.07
2022-10-04T10:19:28.979Z,15.24
2022-10-04T10:21:46.765Z,15.43
2022-10-04T10:24:03.854Z,15.78
2022-10-04T10:26:20.892Z,15.70
2022-10-04T10:28:37.794Z,15.76
2022-10-04T10:30:55.076Z,16.02
2022-10-04T10:33:12.392Z,16.17
2022-10-04T10:35:29.717Z,16.57
2022-10-04T10:37:47.957Z,16.65
2022-10-04T10:40:04.989Z,16.74
2022-10-04T10:42:21.969Z,16.91
2022-10-04T10:44:38.982Z,16.85
2022-10-04T10:46:56.044Z,17.19
2022-10-04T10:49:13.132Z,17.19
2022-10-04T10:51:30.135Z,17.23
2022-10-04T10:53:47.357Z,17.46
2022-10-04T10:56:04.591Z,17.42
2022-10-04T10:58:21.795Z,17.59
2022-10-04T11:00:39.054Z,17.74
2022-10-04T11:03:11.798Z,17.94
2022-10-04T11:05:29.583Z,18.08
2022-10-04T11:07:46.526Z,18.15
2022-10-04T11:10:03.585Z,18.32
2022-10-04T11:12:21.892Z,18.51
2022-10-04T11:14:39.126Z,18.54
2022-10-04T11:16:56.408Z,18.68
2022-10-04T11:19:14.699Z,18.85
2022-10-04T11:21:31.936Z,18.80
2022-10-04T11:23:49.271Z,18.97
2022-10-04T11:26:07.642Z,19.11
2022-10-04T11:28:24.711Z,19.39
2022-10-04T11:30:44.196Z,19.30
2022-10-04T11:33:01.078Z,19.35
2022-10-04T11:35:18.335Z,19.58
2022-10-04T11:37:35.260Z,19.53
2022-10-04T11:39:52.535Z,19.37
2022-10-04T11:42:09.761Z,19.31
2022-10-04T11:44:26.791Z,19.44
2022-10-04T11:46:44.287Z,19.41
2022-10-04T11:49:01.724Z,19.32
2022-10-04T11:51:18.744Z,19.44
2022-10-04T11:53:35.704Z,19.36
2022-10-04T11:55:52.779Z,19.27
2022-10-04T11:58:11.990Z,19.25
2022-10-04T12:00:29.203Z,19.26
2022-10-04T12:02:46.508Z,19.18
2022-10-04T12:05:03.599Z,19.05
2022-10-04T12:07:24.512Z,18.99
2022-10-04T12:09:43.386Z,19.22
2022-10-04T12:12:00.301Z,19.34
2022-10-04T12:14:17.257Z,19.62
2022-10-04T12:16:34.346Z,19.76
2022-10-04T12:18:51.676Z,20.05
2022-10-04T12:21:08.797Z,20.01
2022-10-04T12:23:26.048Z,20.22
2022-10-04T12:25:44.251Z,20.42
2022-10-04T12:28:01.122Z,20.47
2022-10-04T12:30:18.194Z,20.56
2022-10-04T12:32:35.434Z,20.54
2022-10-04T12:34:52.698Z,20.65
2022-10-04T12:37:10.193Z,20.77
2022-10-04T12:39:27.596Z,20.71
2022-10-04T12:41:44.908Z,20.85
2022-10-04T12:44:01.934Z,20.85
2022-10-04T12:46:20.105Z,20.99
2022-10-04T12:48:37.222Z,20.95
2022-10-04T12:50:55.120Z,20.85
2022-10-04T12:53:12.350Z,20.78
2022-10-04T12:55:29.648Z,20.91
2022-10-04T12:57:46.613Z,20.86
2022-10-04T13:00:03.548Z,20.80
2022-10-04T13:02:20.570Z,20.75
2022-10-04T13:04:37.553Z,20.74
2022-10-04T13:06:54.582Z,20.75
2022-10-04T13:09:11.507Z,21.06
2022-10-04T13:11:28.536Z,21.21
2022-10-04T13:13:45.400Z,21.15
2022-10-04T13:18:41.785Z,21.19
2022-10-04T13:20:58.766Z,21.11
2022-10-04T13:23:16.927Z,21.16
2022-10-04T13:25:33.962Z,21.06
2022-10-04T13:27:51.143Z,21.09
2022-10-04T13:30:08.441Z,21.16
2022-10-04T13:32:25.967Z,21.16
2022-10-04T13:34:45.444Z,21.35
2022-10-04T13:37:02.444Z,21.21
2022-10-04T13:39:19.744Z,21.10
2022-10-04T13:41:37.614Z,21.11
2022-10-04T13:43:54.614Z,21.19
2022-10-04T13:46:14.036Z,21.29
2022-10-04T13:48:33.682Z,21.34
2022-10-04T13:50:50.954Z,21.27
2022-10-04T13:53:10.292Z,21.24
2022-10-04T13:55:27.364Z,21.16
2022-10-04T13:57:45.360Z,21.22
2022-10-04T14:00:02.493Z,21.21
2022-10-04T14:02:19.808Z,21.07
2022-10-04T14:04:36.804Z,21.04
2022-10-04T14:06:54.105Z,21.01
2022-10-04T14:09:11.349Z,21.19
2022-10-04T14:11:28.597Z,21.06
2022-10-04T14:13:45.909Z,21.01
2022-10-04T14:16:03.188Z,21.01
2022-10-04T14:18:24.723Z,20.95
2022-10-04T14:20:44.944Z,20.92
2022-10-04T14:23:02.192Z,21.07
2022-10-04T14:25:21.322Z,21.39
2022-10-04T14:27:38.660Z,21.25
2022-10-04T14:29:55.597Z,21.30
2022-10-04T14:32:13.230Z,21.20
2022-10-04T14:34:30.672Z,21.27
2022-10-04T14:36:48.975Z,21.35
2022-10-04T14:39:06.957Z,21.41
2022-10-04T14:41:24.000Z,21.37
2022-10-04T14:43:41.988Z,21.28
2022-10-04T14:45:59.331Z,21.20
2022-10-04T14:48:16.661Z,21.24
2022-10-04T14:50:33.693Z,21.26
2022-10-04T14:52:50.970Z,21.04
2022-10-04T14:55:08.225Z,21.07
2022-10-04T14:57:25.430Z,21.26
2022-10-04T14:59:43.713Z,21.44
2022-10-04T15:02:00.740Z,21.43
2022-10-04T15:04:18.022Z,21.43
2022-10-04T15:06:36.457Z,21.42
2022-10-04T15:08:53.618Z,21.44
2022-10-04T15:11:10.920Z,21.61
2022-10-04T15:13:28.153Z,21.72
2022-10-04T15:15:46.944Z,21.84
2022-10-04T15:18:05.217Z,21.96
2022-10-04T15:20:22.405Z,22.06
2022-10-04T15:22:40.489Z,22.17
2022-10-04T15:24:58.447Z,22.30
2022-10-04T15:27:16.274Z,22.29
2022-10-04T15:29:33.334Z,22.51
2022-10-04T15:31:50.376Z,22.55
2022-10-04T15:34:07.602Z,22.74
2022-10-04T15:36:24.679Z,22.74
2022-10-04T15:38:42.852Z,22.86
2022-10-04T15:41:00.144Z,22.67
2022-10-04T15:43:17.113Z,22.55
2022-10-04T15:45:34.147Z,22.32
2022-10-04T15:47:51.253Z,22.25
2022-10-04T15:50:08.340Z,22.26
2022-10-04T15:52:25.245Z,22.12
2022-10-04T15:54:42.303Z,21.52
2022-10-04T15:57:00.470Z,20.66
2022-10-04T15:59:17.704Z,19.88
2022-10-04T16:01:34.988Z,19.15
2022-10-04T16:03:53.322Z,18.52
2022-10-04T16:06:10.606Z,17.86
2022-10-04T16:08:28.841Z,17.47
2022-10-04T16:10:46.152Z,17.08
2022-10-04T16:13:03.062Z,16.86
2022-10-04T16:15:20.400Z,16.66
2022-10-04T16:17:37.553Z,16.46
2022-10-04T16:19:55.848Z,16.17
2022-10-04T16:22:13.927Z,15.97
2022-10-04T16:24:31.084Z,15.80
2022-10-04T16:26:48.668Z,15.75
2022-10-04T16:29:06.793Z,15.67
2022-10-04T16:31:24.194Z,15.45
2022-10-04T16:33:41.544Z,15.31
2022-10-04T16:35:58.535Z,15.19
2022-10-04T16:38:15.894Z,15.11
2022-10-04T16:40:33.204Z,14.99
2022-10-04T16:42:52.899Z,14.94
2022-10-04T16:45:10.196Z,14.84
2022-10-04T16:47:27.299Z,14.73
2022-10-04T16:49:45.566Z,14.61
2022-10-04T16:52:02.688Z,14.51
2022-10-04T16:54:22.002Z,14.50
2022-10-04T16:56:43.346Z,14.39
2022-10-04T16:59:00.739Z,14.28
2022-10-04T17:01:17.833Z,14.20
2022-10-04T17:03:34.829Z,14.10
2022-10-04T17:05:52.083Z,14.02
2022-10-04T17:08:09.144Z,13.94
2022-10-04T17:10:26.158Z,13.79
2022-10-04T17:12:43.310Z,13.83
2022-10-04T17:15:00.531Z,13.76
2022-10-04T17:17:18.749Z,13.66
2022-10-04T17:19:37.118Z,13.56
2022-10-04T17:21:54.361Z,13.52
2022-10-04T17:24:15.460Z,13.42
2022-10-04T17:26:33.462Z,13.34
2022-10-04T17:28:50.836Z,13.29
2022-10-04T17:31:07.824Z,13.25
2022-10-04T17:33:25.153Z,13.18
2022-10-04T17:35:43.439Z,13.09
2022-10-04T17:38:00.312Z,13.02
2022-10-04T17:40:17.931Z,12.96
2022-10-04T17:42:36.140Z,12.93
2022-10-04T17:44:53.679Z,12.86
2022-10-04T17:47:14.506Z,12.80
2022-10-04T17:49:33.912Z,12.73
2022-10-04T17:51:51.890Z,12.69
2022-10-04T17:54:09.149Z,12.62
2022-10-04T17:56:26.091Z,12.58
2022-10-04T17:58:43.414Z,12.52
2022-10-04T18:01:00.385Z,12.42
2022-10-04T18:03:17.701Z,12.42
2022-10-04T18:05:34.723Z,12.40
2022-10-04T18:07:51.711Z,12.36
2022-10-04T18:10:08.882Z,12.32
2022-10-04T18:12:27.114Z,12.27
2022-10-04T18:14:44.144Z,12.19
2022-10-04T18:17:02.031Z,12.10
2022-10-04T18:19:20.297Z,12.06
2022-10-04T18:21:37.324Z,12.00
2022-10-04T18:23:55.350Z,11.95
2022-10-04T18:26:12.366Z,11.91
2022-10-04T18:28:29.630Z,11.86
2022-10-04T18:30:47.717Z,11.80
2022-10-04T18:33:04.979Z,11.72
2022-10-04T18:35:22.054Z,11.72
2022-10-04T18:37:39.054Z,11.68
2022-10-04T18:39:55.989Z,11.66
2022-10-04T18:42:13.341Z,11.60
2022-10-04T18:44:30.609Z,11.55
2022-10-04T18:46:47.871Z,11.52
2022-10-04T18:49:05.331Z,11.47
2022-10-04T18:51:22.275Z,11.42
2022-10-04T18:53:39.397Z,11.36
2022-10-04T18:55:57.187Z,11.30
2022-10-04T18:58:14.376Z,11.33
2022-10-04T19:00:31.369Z,11.26
2022-10-04T19:02:48.654Z,11.22
2022-10-04T19:05:06.948Z,11.16
2022-10-04T19:07:24.783Z,11.10
2022-10-04T19:09:42.032Z,11.02
2022-10-04T19:11:59.078Z,11.00
2022-10-04T19:14:17.048Z,10.97
2022-10-04T19:16:35.308Z,10.93
2022-10-04T19:18:53.652Z,10.90
2022-10-04T19:21:10.865Z,10.85
2022-10-04T19:23:29.227Z,10.79
2022-10-04T19:26:09.997Z,10.72
2022-10-04T19:28:24.588Z,10.67
2022-10-04T19:30:41.575Z,10.66
2022-10-04T19:32:58.872Z,10.64
2022-10-04T19:35:15.878Z,10.60
2022-10-04T19:37:32.729Z,10.53
2022-10-04T19:39:49.678Z,10.49
2022-10-04T19:42:08.242Z,10.46
2022-10-04T19:44:26.865Z,10.41
2022-10-04T19:46:44.277Z,10.41
2022-10-04T19:49:04.383Z,10.37
2022-10-04T19:51:21.605Z,10.30
2022-10-04T19:53:39.626Z,10.29
2022-10-04T19:55:56.933Z,10.23
2022-10-04T19:58:13.883Z,10.18
2022-10-04T20:00:30.792Z,10.14
2022-10-04T20:02:49.237Z,10.11
2022-10-04T20:05:07.191Z,10.03
2022-10-04T20:07:24.254Z,9.96
2022-10-04T20:09:41.155Z,9.93
2022-10-04T20:11:58.192Z,9.92
2022-10-04T20:14:15.209Z,9.91
2022-10-04T20:16:32.514Z,9.87
2022-10-04T20:18:50.575Z,9.85
2022-10-04T20:21:08.518Z,9.80
2022-10-04T20:23:25.747Z,9.75
2022-10-04T20:25:43.138Z,9.70
2022-10-04T20:28:00.610Z,9.67
2022-10-04T20:30:17.626Z,9.64
2022-10-04T20:32:34.634Z,9.63
2022-10-04T20:34:51.608Z,9.61
2022-10-04T20:37:08.589Z,9.56
2022-10-04T20:39:25.910Z,9.50
2022-10-04T20:41:43.212Z,9.48
2022-10-04T20:44:01.397Z,9.42
2022-10-04T20:46:19.792Z,9.35
2022-10-04T20:48:37.357Z,9.31
2022-10-04T20:50:54.600Z,9.32
2022-10-04T20:53:11.512Z,9.27
2022-10-04T20:55:28.630Z,9.20
2022-10-04T20:57:45.996Z,9.17
2022-10-04T21:00:04.443Z,9.15
2022-10-04T21:02:21.768Z,9.12
2022-10-04T21:04:38.776Z,9.11
2022-10-04T21:06:56.478Z,9.06
2022-10-04T21:09:14.851Z,9.01
2022-10-04T21:11:34.162Z,9.03
2022-10-04T21:13:51.209Z,9.06
2022-10-04T21:16:08.624Z,9.07
2022-10-04T21:18:25.978Z,9.06
2022-10-04T21:20:43.304Z,9.05
2022-10-04T21:23:00.570Z,9.08
2022-10-04T21:25:17.562Z,9.08
2022-10-04T21:27:34.622Z,9.09
2022-10-04T21:29:51.667Z,9.07
2022-10-04T21:32:09.073Z,9.06
2022-10-04T21:34:51.434Z,9.08
2022-10-04T21:37:03.288Z,9.10
2022-10-04T21:39:21.533Z,9.13
2022-10-04T21:41:38.589Z,9.17
2022-10-04T21:43:55.932Z,9.18
2022-10-04T21:46:17.851Z,9.17
2022-10-04T21:48:37.508Z,9.17
2022-10-04T21:50:56.124Z,9.21
2022-10-04T21:53:13.087Z,9.23
2022-10-04T21:55:30.421Z,9.28
2022-10-04T21:57:48.485Z,9.31
2022-10-04T22:00:05.479Z,9.28
2022-10-04T22:02:25.022Z,9.30
2022-10-04T22:04:42.135Z,9.31
2022-10-04T22:07:01.513Z,9.33
2022-10-04T22:09:18.842Z,9.37
2022-10-04T22:11:36.122Z,9.43
2022-10-04T22:13:53.327Z,9.43
2022-10-04T22:16:10.818Z,9.45
2022-10-04T22:18:28.912Z,9.43
2022-10-04T22:20:45.912Z,9.39
2022-10-04T22:23:03.254Z,9.33
2022-10-04T22:25:20.468Z,9.30
2022-10-04T22:27:37.783Z,9.31
2022-10-04T22:29:55.757Z,9.30
2022-10-04T22:32:12.877Z,9.30
2022-10-04T22:34:29.975Z,9.34
2022-10-04T22:36:47.580Z,9.35
2022-10-04T22:39:06.036Z,9.32
2022-10-04T22:41:23.282Z,9.31
2022-10-04T22:43:40.174Z,9.34
2022-10-04T22:45:57.894Z,9.33
2022-10-04T22:48:16.293Z,9.29
2022-10-04T22:50:34.371Z,9.24
2022-10-04T22:52:52.311Z,9.24
2022-10-04T22:55:10.414Z,9.20
2022-10-04T22:57:30.452Z,9.20
2022-10-04T22:59:47.339Z,9.20
2022-10-04T23:02:07.101Z,9.20
2022-10-04T23:04:24.023Z,9.19
2022-10-04T23:06:41.065Z,9.17
2022-10-04T23:08:58.104Z,9.16
2022-10-04T23:11:15.055Z,9.14
2022-10-04T23:13:33.089Z,9.08
2022-10-04T23:15:50.056Z,9.06
2022-10-04T23:18:08.979Z,9.05
2022-10-04T23:20:25.981Z,9.02
2022-10-04T23:22:43.287Z,9.01
2022-10-04T23:25:14.008Z,8.97
2022-10-04T23:27:33.374Z,8.94
2022-10-04T23:29:50.614Z,8.93
2022-10-04T23:32:07.739Z,8.89
2022-10-04T23:34:24.787Z,8.89
2022-10-04T23:36:41.957Z,8.86
2022-10-04T23:38:59.200Z,8.85
2022-10-04T23:41:16.168Z,8.82
2022-10-04T23:43:33.096Z,8.80
2022-10-04T23:45:51.872Z,8.79
2022-10-04T23:48:12.303Z,8.80
2022-10-04T23:50:29.603Z,8.80
2022-10-04T23:52:46.835Z,8.81
2022-10-04T23:55:04.282Z,8.81
2022-10-04T23:57:21.600Z,8.82
2022-10-04T23:59:38.822Z,8.84
